createdAt,value
2023-04-05T00:01:31.810Z,17.00
2023-04-05T00:04:02.875Z,18.30
2023-04-05T00:06:31.941Z,17.70
2023-04-05T00:09:04.007Z,20.70
2023-04-05T00:11:33.232Z,21.00
2023-04-05T00:14:02.091Z,23.10
2023-04-05T00:16:34.934Z,21.30
2023-04-05T00:19:03.889Z,21.20
2023-04-05T00:21:42.083Z,18.40
2023-04-05T00:24:15.748Z,16.50
2023-04-05T00:26:44.535Z,17.40
2023-04-05T00:29:13.163Z,17.40
2023-04-05T00:31:41.904Z,17.00
2023-04-05T00:34:13.081Z,15.70
2023-04-05T00:36:46.574Z,16.00
2023-04-05T00:42:14.750Z,15.70
2023-04-05T00:44:44.168Z,18.60
2023-04-05T00:47:16.254Z,15.80
2023-04-05T00:49:44.939Z,17.20
2023-04-05T00:52:17.941Z,16.10
2023-04-05T00:54:53.682Z,16.70
2023-04-05T00:57:26.975Z,16.80
2023-04-05T00:59:59.550Z,15.60
2023-04-05T01:02:34.104Z,15.20
2023-04-05T01:05:08.680Z,16.00
2023-04-05T01:08:16.499Z,15.00
2023-04-05T01:10:48.988Z,15.90
2023-04-05T01:13:18.028Z,15.10
2023-04-05T01:15:47.114Z,15.60
2023-04-05T01:18:15.937Z,24.10
2023-04-05T01:20:56.744Z,22.90
2023-04-05T01:24:01.274Z,23.90
2023-04-05T01:26:55.760Z,24.00
2023-04-05T01:32:21.492Z,23.90
2023-04-05T01:35:35.121Z,20.70
2023-04-05T01:38:05.611Z,21.40
2023-04-05T01:40:37.292Z,20.60
2023-04-05T01:43:17.234Z,20.20
2023-04-05T01:45:46.441Z,19.00
2023-04-05T01:48:15.381Z,20.30
2023-04-05T01:51:20.476Z,22.80
2023-04-05T01:53:54.332Z,20.70
2023-04-05T01:56:34.855Z,18.90
2023-04-05T01:59:08.111Z,21.00
2023-04-05T02:01:37.344Z,21.40
2023-04-05T02:04:09.801Z,23.70
2023-04-05T02:06:42.412Z,26.20
2023-04-05T02:09:12.077Z,29.90
2023-04-05T02:11:42.022Z,28.40
2023-04-05T02:14:13.816Z,25.70
2023-04-05T02:16:43.474Z,22.20
2023-04-05T02:19:53.406Z,20.00
2023-04-05T02:22:25.442Z,18.30
2023-04-05T02:24:54.006Z,18.80
2023-04-05T02:27:22.336Z,16.50
2023-04-05T02:29:53.250Z,18.40
2023-04-05T02:32:26.533Z,18.00
2023-04-05T02:34:59.989Z,35.10
2023-04-05T02:37:28.981Z,28.10
2023-04-05T02:40:13.244Z,23.00
2023-04-05T02:42:43.055Z,24.40
2023-04-05T02:45:12.732Z,24.50
2023-04-05T02:47:43.464Z,21.30
2023-04-05T02:50:12.218Z,20.00
2023-04-05T02:52:49.064Z,21.10
2023-04-05T02:55:34.703Z,21.30
2023-04-05T02:58:21.079Z,20.30
2023-04-05T03:00:55.244Z,22.90
2023-04-05T03:03:31.107Z,22.30
2023-04-05T03:06:10.481Z,26.00
2023-04-05T03:09:15.094Z,24.80
2023-04-05T03:11:48.712Z,22.50
2023-04-05T03:14:18.714Z,21.80
2023-04-05T03:16:50.904Z,20.70
2023-04-05T03:19:36.223Z,33.90
2023-04-05T03:22:17.446Z,27.90
2023-04-05T03:24:49.378Z,26.60
2023-04-05T03:27:22.160Z,25.50
2023-04-05T03:30:50.166Z,24.70
2023-04-05T03:33:21.637Z,40.30
2023-04-05T03:35:53.113Z,38.50
2023-04-05T03:38:52.296Z,37.70
2023-04-05T03:41:26.230Z,28.00
2023-04-05T03:43:54.722Z,28.70
2023-04-05T03:46:27.360Z,30.80
2023-04-05T03:48:57.431Z,26.00
2023-04-05T03:51:25.982Z,26.40
2023-04-05T03:53:57.649Z,26.60
2023-04-05T03:56:28.302Z,26.00
2023-04-05T03:59:03.876Z,23.40
2023-04-05T04:01:36.221Z,25.10
2023-04-05T04:04:06.143Z,21.80
2023-04-05T04:06:34.843Z,21.60
2023-04-05T04:09:06.099Z,21.20
2023-04-05T04:11:34.675Z,18.50
2023-04-05T04:14:06.772Z,21.50
2023-04-05T04:16:40.656Z,27.30
2023-04-05T04:19:48.137Z,23.60
2023-04-05T04:22:39.053Z,20.00
2023-04-05T04:25:22.464Z,20.70
2023-04-05T04:28:09.865Z,16.90
2023-04-05T04:31:13.943Z,16.70
2023-04-05T04:34:15.126Z,20.70
2023-04-05T04:37:04.589Z,20.60
2023-04-05T04:40:09.184Z,18.70
2023-04-05T04:42:47.020Z,18.80
2023-04-05T04:45:38.255Z,17.30
2023-04-05T04:48:19.844Z,18.70
2023-04-05T04:50:59.319Z,17.50
2023-04-05T04:53:30.579Z,16.50
2023-04-05T04:55:59.456Z,17.60
2023-04-05T04:58:29.272Z,16.40
2023-04-05T05:01:10.303Z,16.30
2023-04-05T05:03:41.514Z,16.80
2023-04-05T05:06:10.155Z,17.10
2023-04-05T05:08:38.688Z,16.90
2023-04-05T05:11:08.040Z,16.50
2023-04-05T05:13:37.319Z,15.60
2023-04-05T05:16:07.294Z,15.90
2023-04-05T05:18:40.593Z,14.00
2023-04-05T05:21:10.790Z,14.30
2023-04-05T05:23:39.240Z,14.80
2023-04-05T05:26:09.380Z,13.10
2023-04-05T05:28:38.849Z,14.60
2023-04-05T05:31:07.533Z,13.20
2023-04-05T05:33:38.718Z,13.80
2023-04-05T05:36:07.605Z,13.10
2023-04-05T05:38:36.973Z,14.10
2023-04-05T05:41:05.763Z,14.50
2023-04-05T05:43:34.526Z,14.10
2023-04-05T05:46:03.269Z,13.30
2023-04-05T05:48:33.669Z,14.90
2023-04-05T05:51:02.765Z,13.40
2023-04-05T05:53:31.882Z,13.40
2023-04-05T05:56:00.632Z,14.00
2023-04-05T05:58:29.612Z,13.40
2023-04-05T06:00:59.241Z,12.50
2023-04-05T06:03:32.186Z,12.10
2023-04-05T06:06:03.531Z,12.10
2023-04-05T06:08:32.206Z,12.50
2023-04-05T06:11:01.752Z,10.90
2023-04-05T06:13:30.971Z,11.80
2023-04-05T06:16:06.405Z,12.50
2023-04-05T06:18:35.262Z,10.10
2023-04-05T06:21:03.937Z,12.20
2023-04-05T06:23:33.259Z,12.00
2023-04-05T06:26:02.373Z,12.80
2023-04-05T06:28:31.066Z,10.30
2023-04-05T06:31:16.238Z,10.40
2023-04-05T06:33:45.716Z,12.20
2023-04-05T06:36:18.036Z,11.40
2023-04-05T06:38:47.223Z,11.10
2023-04-05T06:41:15.875Z,12.30
2023-04-05T06:43:44.426Z,11.40
2023-04-05T06:46:14.095Z,12.00
2023-04-05T06:48:48.625Z,16.10
2023-04-05T06:51:41.513Z,15.10
2023-04-05T06:54:53.754Z,13.10
2023-04-05T06:57:43.308Z,14.20
2023-04-05T07:00:17.631Z,12.50
2023-04-05T07:02:48.685Z,9.90
2023-04-05T07:05:17.924Z,9.40
2023-04-05T07:07:49.062Z,9.30
2023-04-05T07:10:17.929Z,9.50
2023-04-05T07:12:49.165Z,9.10
2023-04-05T07:15:21.054Z,9.40
2023-04-05T07:17:50.064Z,8.70
2023-04-05T07:20:19.358Z,9.00
2023-04-05T07:22:52.196Z,8.60
2023-04-05T07:25:21.341Z,9.90
2023-04-05T07:27:50.020Z,8.80
2023-04-05T07:30:20.646Z,9.00
2023-04-05T07:32:50.131Z,7.50
2023-04-05T07:35:18.570Z,8.80
2023-04-05T07:37:49.540Z,7.80
2023-04-05T07:40:18.506Z,9.10
2023-04-05T07:42:47.088Z,9.50
2023-04-05T07:45:16.148Z,8.50
2023-04-05T07:47:45.204Z,8.60
2023-04-05T07:50:17.542Z,7.40
2023-04-05T07:52:46.606Z,8.00
2023-04-05T07:55:15.188Z,7.40
2023-04-05T07:57:44.777Z,8.50
2023-04-05T08:00:14.557Z,7.70
2023-04-05T08:02:48.748Z,7.80
2023-04-05T08:05:17.337Z,9.50
2023-04-05T08:07:46.006Z,8.00
2023-04-05T08:10:18.916Z,7.30
2023-04-05T08:12:49.164Z,8.50
2023-04-05T08:15:17.982Z,9.00
2023-04-05T08:17:47.603Z,8.90
2023-04-05T08:20:16.380Z,7.20
2023-04-05T08:22:44.902Z,9.00
2023-04-05T08:25:14.148Z,8.60
2023-04-05T08:27:42.831Z,8.80
2023-04-05T08:30:12.544Z,7.50
2023-04-05T08:32:42.437Z,8.10
2023-04-05T08:35:11.123Z,7.50
2023-04-05T08:37:41.841Z,7.40
2023-04-05T08:40:10.555Z,6.80
2023-04-05T08:42:52.077Z,7.50
2023-04-05T08:45:20.528Z,7.80
2023-04-05T08:47:49.506Z,12.80
2023-04-05T08:50:18.396Z,9.40
2023-04-05T08:52:50.502Z,8.90
2023-04-05T08:55:19.472Z,12.00
2023-04-05T08:57:51.463Z,18.30
2023-04-05T09:00:20.576Z,20.60
2023-04-05T09:02:55.920Z,10.00
2023-04-05T09:05:24.737Z,9.80
2023-04-05T09:07:53.172Z,10.00
2023-04-05T09:10:22.223Z,9.50
2023-04-05T09:12:53.006Z,6.90
2023-04-05T09:15:24.526Z,6.90
2023-04-05T09:17:55.164Z,6.50
2023-04-05T09:20:24.289Z,6.00
2023-04-05T09:22:53.019Z,5.30
2023-04-05T09:25:35.869Z,6.40
2023-04-05T09:28:05.021Z,6.70
2023-04-05T09:30:34.883Z,11.20
2023-04-05T09:33:12.855Z,10.90
2023-04-05T09:35:41.524Z,9.00
2023-04-05T09:38:10.419Z,9.40
2023-04-05T09:40:47.339Z,8.70
2023-04-05T09:43:42.147Z,7.90
2023-04-05T09:46:38.311Z,8.10
2023-04-05T09:49:09.611Z,7.40
2023-04-05T09:51:38.870Z,7.40
2023-04-05T09:54:11.551Z,5.60
2023-04-05T09:56:41.471Z,5.30
2023-04-05T09:59:11.821Z,4.70
2023-04-05T10:01:43.982Z,5.10
2023-04-05T10:04:14.058Z,5.20
2023-04-05T10:06:43.090Z,5.90
2023-04-05T10:09:15.609Z,5.70
2023-04-05T10:11:45.679Z,7.00
2023-04-05T10:14:14.663Z,5.00
2023-04-05T10:17:08.594Z,4.90
2023-04-05T10:20:11.251Z,5.20
2023-04-05T10:22:46.422Z,5.40
2023-04-05T10:25:39.353Z,4.20
2023-04-05T10:28:12.615Z,4.50
2023-04-05T10:30:47.668Z,5.70
2023-04-05T10:33:19.226Z,5.30
2023-04-05T10:36:45.030Z,4.40
2023-04-05T10:39:40.396Z,5.80
2023-04-05T10:42:18.210Z,4.30
2023-04-05T10:44:46.849Z,4.90
2023-04-05T10:47:17.583Z,5.10
2023-04-05T10:49:53.995Z,4.70
2023-04-05T10:52:22.889Z,5.60
2023-04-05T10:54:52.876Z,4.70
2023-04-05T10:57:21.859Z,7.80
2023-04-05T10:59:50.277Z,6.00
2023-04-05T11:02:22.527Z,4.50
2023-04-05T11:04:58.309Z,5.60
2023-04-05T11:07:27.228Z,5.60
2023-04-05T11:10:06.128Z,4.80
2023-04-05T11:12:47.340Z,4.90
2023-04-05T11:15:29.337Z,5.90
2023-04-05T11:18:07.204Z,4.90
2023-04-05T11:20:56.448Z,5.90
2023-04-05T11:23:31.563Z,6.00
2023-04-05T11:26:07.564Z,7.60
2023-04-05T11:28:39.933Z,6.80
2023-04-05T11:31:23.092Z,7.20
2023-04-05T11:33:57.688Z,5.70
2023-04-05T11:36:42.335Z,6.00
2023-04-05T11:39:18.818Z,5.40
2023-04-05T11:42:02.595Z,6.10
2023-04-05T11:44:42.718Z,6.30
2023-04-05T11:47:12.758Z,13.50
2023-04-05T11:49:53.019Z,6.20
2023-04-05T11:52:24.298Z,7.40
2023-04-05T11:54:54.193Z,5.40
2023-04-05T11:57:23.574Z,7.00
2023-04-05T12:00:01.483Z,5.50
2023-04-05T12:02:56.066Z,6.10
2023-04-05T12:05:25.071Z,5.10
2023-04-05T12:07:56.626Z,5.80
2023-04-05T12:12:56.556Z,6.40
2023-04-05T12:15:26.363Z,9.30
2023-04-05T12:17:55.052Z,6.70
2023-04-05T12:20:25.378Z,5.60
2023-04-05T12:22:56.351Z,5.70
2023-04-05T12:25:25.192Z,6.50
2023-04-05T12:27:54.192Z,4.80
2023-04-05T12:30:23.894Z,7.50
2023-04-05T12:32:54.405Z,4.40
2023-04-05T12:35:34.181Z,5.50
2023-04-05T12:38:05.716Z,5.50
2023-04-05T12:40:34.914Z,4.80
2023-04-05T12:43:09.007Z,5.10
2023-04-05T12:45:42.197Z,4.20
2023-04-05T12:48:22.409Z,4.90
2023-04-05T12:50:55.386Z,4.40
2023-04-05T12:53:28.792Z,4.40
2023-04-05T12:58:36.233Z,4.50
2023-04-05T13:01:05.349Z,4.30
2023-04-05T13:03:35.189Z,6.50
2023-04-05T13:06:05.311Z,4.70
2023-04-05T13:08:34.259Z,4.60
2023-04-05T13:11:02.673Z,5.90
2023-04-05T13:13:34.614Z,4.70
2023-04-05T13:16:05.636Z,4.20
2023-04-05T13:18:36.125Z,5.60
2023-04-05T13:21:08.684Z,4.70
2023-04-05T13:23:38.189Z,5.70
2023-04-05T13:26:06.905Z,5.00
2023-04-05T13:28:36.453Z,4.60
2023-04-05T13:31:07.024Z,5.80
2023-04-05T13:33:37.783Z,6.20
2023-04-05T13:36:08.723Z,7.30
2023-04-05T13:38:44.124Z,6.60
2023-04-05T13:41:12.608Z,5.50
2023-04-05T13:43:40.980Z,6.30
2023-04-05T13:46:13.505Z,5.60
2023-04-05T13:48:42.246Z,6.00
2023-04-05T13:51:18.388Z,5.70
2023-04-05T13:53:46.998Z,6.50
2023-04-05T13:56:15.492Z,6.10
2023-04-05T13:58:46.306Z,6.80
2023-04-05T14:01:14.765Z,6.00
2023-04-05T14:03:51.819Z,6.30
2023-04-05T14:06:20.796Z,4.40
2023-04-05T14:08:55.401Z,5.10
2023-04-05T14:11:26.918Z,5.20
2023-04-05T14:13:55.878Z,6.50
2023-04-05T14:16:24.655Z,4.30
2023-04-05T14:18:57.953Z,5.50
2023-04-05T14:21:27.888Z,5.10
2023-04-05T14:23:58.146Z,3.80
2023-04-05T14:26:27.811Z,3.30
2023-04-05T14:28:56.673Z,4.20
2023-04-05T14:31:26.980Z,4.10
2023-04-05T14:33:57.368Z,3.20
2023-04-05T14:36:27.135Z,3.90
2023-04-05T14:38:56.903Z,3.50
2023-04-05T14:41:27.493Z,3.60
2023-04-05T14:43:56.141Z,4.10
2023-04-05T14:46:25.508Z,3.70
2023-04-05T14:48:54.962Z,3.20
2023-04-05T14:51:23.734Z,3.10
2023-04-05T14:53:52.525Z,4.20
2023-04-05T14:56:26.933Z,4.70
2023-04-05T14:58:55.945Z,4.00
2023-04-05T15:01:25.554Z,4.70
2023-04-05T15:03:56.238Z,5.30
2023-04-05T15:06:25.311Z,5.30
2023-04-05T15:08:57.288Z,5.80
2023-04-05T15:11:27.382Z,5.80
2023-04-05T15:13:56.209Z,6.10
2023-04-05T15:16:25.403Z,5.90
2023-04-05T15:18:55.908Z,6.80
2023-04-05T15:21:25.089Z,6.40
2023-04-05T15:23:53.695Z,6.80
2023-04-05T15:26:22.303Z,6.60
2023-04-05T15:28:51.234Z,7.10
2023-04-05T15:31:19.985Z,6.60
2023-04-05T15:33:48.699Z,6.00
2023-04-05T15:36:17.336Z,6.20
2023-04-05T15:38:46.691Z,4.90
2023-04-05T15:41:15.208Z,6.30
2023-04-05T15:43:45.114Z,6.10
2023-04-05T15:46:21.429Z,5.70
2023-04-05T15:49:15.397Z,7.20
2023-04-05T15:51:47.892Z,6.00
2023-04-05T16:02:44.817Z,5.60
2023-04-05T16:05:14.425Z,7.50
2023-04-05T17:18:47.962Z,6.40
2023-04-05T17:24:36.456Z,6.70
2023-04-05T17:27:06.025Z,6.40
2023-04-05T17:30:04.095Z,6.00
2023-04-05T17:33:04.951Z,6.40
2023-04-05T17:36:19.192Z,6.70
2023-04-05T17:39:13.458Z,6.60
2023-04-05T17:41:47.436Z,6.30
2023-04-05T17:44:21.686Z,8.00
2023-04-05T17:47:01.227Z,7.20
2023-04-05T17:49:36.970Z,6.70
2023-04-05T17:52:13.405Z,6.30
2023-04-05T17:54:43.913Z,6.60
2023-04-05T17:57:15.880Z,6.40
2023-04-05T17:59:46.070Z,5.10
2023-04-05T18:02:20.877Z,5.50
2023-04-05T18:05:10.773Z,5.50
2023-04-05T18:07:43.398Z,5.90
2023-04-05T18:10:13.919Z,5.30
2023-04-05T18:12:43.311Z,6.50
2023-04-05T18:15:21.181Z,7.00
2023-04-05T18:17:51.067Z,6.20
2023-04-05T18:20:20.022Z,6.50
2023-04-05T18:22:57.194Z,7.20
2023-04-05T18:25:26.788Z,6.20
2023-04-05T18:27:56.415Z,6.30
2023-04-05T18:30:26.781Z,6.00
2023-04-05T18:32:56.313Z,7.30
2023-04-05T18:35:24.942Z,7.00
2023-04-05T18:37:53.912Z,6.60
2023-04-05T18:40:22.514Z,6.30
2023-04-05T18:42:54.600Z,7.20
2023-04-05T18:45:23.384Z,6.10
2023-04-05T18:47:52.044Z,6.00
2023-04-05T18:50:20.777Z,5.50
2023-04-05T18:52:49.478Z,6.40
2023-04-05T18:55:18.386Z,6.40
2023-04-05T18:57:47.422Z,5.60
2023-04-05T19:00:17.516Z,6.30
2023-04-05T19:02:49.050Z,5.30
2023-04-05T19:05:18.226Z,5.50
2023-04-05T19:07:46.814Z,5.50
2023-04-05T19:10:15.639Z,5.90
2023-04-05T19:12:45.512Z,5.80
2023-04-05T19:15:24.243Z,5.70
2023-04-05T19:17:53.077Z,6.00
2023-04-05T19:20:21.936Z,6.70
2023-04-05T19:22:50.835Z,5.30
2023-04-05T19:25:19.916Z,5.80
2023-04-05T19:27:52.306Z,6.00
2023-04-05T19:30:22.321Z,6.50
2023-04-05T19:35:35.882Z,6.20
2023-04-05T19:38:05.657Z,6.60
2023-04-05T19:40:34.269Z,5.60
2023-04-05T19:43:04.513Z,6.10
2023-04-05T19:45:34.830Z,6.30
2023-04-05T19:48:04.843Z,5.10
2023-04-05T19:50:49.535Z,5.80
2023-04-05T19:53:41.469Z,5.80
2023-04-05T19:56:16.856Z,6.00
2023-04-05T19:58:46.218Z,5.20
2023-04-05T20:01:34.143Z,6.10
2023-04-05T20:04:22.689Z,6.20
2023-04-05T20:06:55.432Z,6.40
2023-04-05T20:09:26.956Z,5.40
2023-04-05T20:11:58.201Z,5.10
2023-04-05T20:14:41.998Z,6.80
2023-04-05T20:17:12.724Z,5.20
2023-04-05T20:19:56.552Z,6.50
2023-04-05T20:22:27.297Z,6.50
2023-04-05T20:24:57.230Z,7.80
2023-04-05T20:27:26.757Z,6.30
2023-04-05T20:29:56.946Z,5.90
2023-04-05T20:32:28.091Z,6.60
2023-04-05T20:34:57.170Z,5.60
2023-04-05T20:37:31.388Z,4.70
2023-04-05T20:40:00.813Z,5.10
2023-04-05T20:42:33.349Z,6.50
2023-04-05T20:47:36.573Z,5.70
2023-04-05T20:50:06.475Z,4.90
2023-04-05T20:52:35.793Z,6.10
2023-04-05T20:55:06.273Z,9.30
2023-04-05T20:57:47.195Z,7.10
2023-04-05T21:00:19.858Z,6.50
2023-04-05T21:02:49.473Z,5.40
2023-04-05T21:05:18.286Z,5.70
2023-04-05T21:07:49.191Z,6.20
2023-04-05T21:10:18.006Z,5.50
2023-04-05T21:12:46.971Z,8.10
2023-04-05T21:15:15.535Z,6.30
2023-04-05T21:17:45.595Z,7.50
2023-04-05T21:20:14.192Z,6.50
2023-04-05T21:22:42.704Z,7.50
2023-04-05T21:25:11.552Z,8.60
2023-04-05T21:27:40.076Z,9.00
2023-04-05T21:30:10.094Z,7.90
2023-04-05T21:32:39.193Z,9.00
2023-04-05T21:35:09.368Z,7.20
2023-04-05T21:37:39.168Z,6.10
2023-04-05T21:40:08.448Z,6.70
2023-04-05T21:42:36.984Z,6.00
2023-04-05T21:45:07.214Z,6.70
2023-04-05T21:47:36.782Z,7.00
2023-04-05T21:50:09.771Z,7.50
2023-04-05T21:52:38.343Z,8.40
2023-04-05T21:55:07.329Z,7.10
2023-04-05T21:57:37.643Z,9.80
2023-04-05T22:00:11.138Z,8.00
2023-04-05T22:02:47.154Z,6.50
2023-04-05T22:05:29.464Z,7.00
2023-04-05T22:08:06.541Z,7.10
2023-04-05T22:10:36.400Z,5.70
2023-04-05T22:13:05.580Z,8.60
2023-04-05T22:15:36.052Z,7.80
2023-04-05T22:18:05.913Z,7.60
2023-04-05T22:20:41.328Z,8.30
2023-04-05T22:23:10.043Z,8.30
2023-04-05T22:25:38.597Z,7.20
2023-04-05T22:28:08.677Z,6.80
2023-04-05T22:35:42.207Z,6.20
2023-04-05T22:38:13.949Z,7.40
2023-04-05T22:40:44.998Z,8.20
2023-04-05T22:43:13.764Z,7.40
2023-04-05T22:45:43.268Z,6.50
2023-04-05T22:48:11.967Z,7.00
2023-04-05T22:50:42.198Z,7.10
2023-04-05T22:53:10.938Z,7.50
2023-04-05T22:55:41.146Z,8.20
2023-04-05T22:58:11.860Z,10.10
2023-04-05T23:00:40.661Z,8.30
2023-04-05T23:03:11.174Z,10.50
2023-04-05T23:05:40.532Z,8.80
2023-04-05T23:08:09.075Z,6.90
2023-04-05T23:10:37.931Z,5.60
2023-04-05T23:13:07.356Z,4.50
2023-04-05T23:15:36.797Z,5.40
2023-04-05T23:18:08.799Z,4.30
2023-04-05T23:20:40.609Z,5.40
2023-04-05T23:23:17.439Z,4.60
2023-04-05T23:26:00.347Z,4.50
2023-04-05T23:28:32.094Z,5.20
2023-04-05T23:31:08.837Z,4.50
2023-04-05T23:33:43.587Z,5.60
2023-04-05T23:36:15.371Z,5.10
2023-04-05T23:38:44.988Z,6.00
2023-04-05T23:41:13.649Z,5.20
2023-04-05T23:43:42.413Z,5.00
2023-04-05T23:46:11.463Z,5.10
2023-04-05T23:48:41.488Z,5.20
2023-04-05T23:51:10.192Z,4.90
2023-04-05T23:53:41.505Z,5.00
2023-04-05T23:56:11.652Z,5.80
2023-04-05T23:58:42.440Z,5.10
